Scottish Airport Reports

Civil airfields updated at H+20 and H+50
RAF airfields updated at H+50 only

EGPD - Aberdeen
Distance from station: NNE 19mi, 31km
Updated: 01/06/2020 22:50
Clear
Clear
 Wind from SSE
Wind: SSE 9 mph , 15 km/h
Temperature: 14°C
Dew Point: 7°C
Humidity: 63%
Barometer: 1025 hPa
Clouds: Clear
Visibility: 6 miles , 10 km
2020/06/01 21:50 EGPD 012150Z AUTO 15008KT 9999 NCD 14/07 Q1025 NOSIG
EGPN - Dundee
Distance from station: SW 41mi, 66km
Updated: 01/06/2020 20:20
NOT Current
Clear
Clear
 Wind from ENE
Wind: ENE 7 mph , 11 km/h
Temperature: 17°C
Dew Point: 9°C
Humidity: 59%
Barometer: 1025 hPa
Summary: Clear
Visibility: greater than 7 miles , 10 km
2020/06/01 19:20 EGPN 011920Z 07006KT CAVOK 17/09 Q1025
 
EGQS - RAF Lossiemouth
Distance from station: NNW 63mi, 102km
Updated: 01/06/2020 22:50
Clear
Clear
 Wind from WSW
Wind: WSW 9 mph , 15 km/h
Temperature: 13°C
Dew Point: 11°C
Humidity: 88%
Barometer: 1023 hPa
Summary: Clear
Visibility: greater than 7 miles , 10 km
2020/06/01 21:50 EGQS 012150Z 24008KT CAVOK 13/11 Q1023 RMK BLU
EGPE - Inverness
Distance from station: WNW 73mi, 117km
Updated: 01/06/2020 22:50
Clear
Clear
 Wind from varies
Wind: varies 1 mph , 2 km/h
Temperature: 13°C
Dew Point: 10°C
Humidity: 82%
Barometer: 1024 hPa
Clouds: Clear
Visibility: 6 miles , 10 km
2020/06/01 21:50 EGPE 012150Z AUTO VRB01KT 9999 NCD 13/10 Q1024
 
EGPH - Edinburgh
Distance from station: SSW 77mi, 125km
Updated: 01/06/2020 22:50
Clear
Clear
 Wind from calm
Wind: Calm
Temperature: 12°C
Dew Point: 10°C
Humidity: 88%
Barometer: 1024 hPa
Summary: Clear
Visibility: greater than 7 miles , 10 km
2020/06/01 21:50 EGPH 012150Z 00000KT CAVOK 12/10 Q1024
EGPC - Wick
Distance from station: NNW 107mi, 172km
Updated: 01/06/2020 22:50
Clear
Clear
 Wind from NNE
Wind: NNE 6 mph , 9 km/h
Temperature: 10°C
Wind Chill: 9°C
Dew Point: 9°C
Humidity: 94%
Barometer: 1024 hPa
Clouds: Clear
Visibility: 6 miles , 10 km
2020/06/01 21:50 EGPC 012150Z AUTO 02005KT 9999 NCD 10/09 Q1024
 
EGPF - Glasgow
Distance from station: SW 107mi, 172km
Updated: 01/06/2020 22:50
Clear
Clear
 Wind from WSW
Wind: WSW 7 mph , 11 km/h
Temperature: 15°C
Dew Point: 11°C
Humidity: 77%
Barometer: 1024 hPa
Clouds: Clear
Visibility: 6 miles , 10 km
2020/06/01 21:50 EGPF 012150Z AUTO 25006KT 9999 NCD 15/11 Q1024
EGPK - Prestwick
Distance from station: SW 130mi, 209km
Updated: 01/06/2020 22:50
Few Clouds
Few Clouds
 Wind from ESE
Wind: ESE 6 mph , 9 km/h
Temperature: 13°C
Dew Point: 7°C
Humidity: 67%
Barometer: 1025 hPa
Clouds: Few Clouds
Visibility: 6 miles , 10 km
Cloud details: Few Clouds 4800 ft
2020/06/01 21:50 EGPK 012150Z 11005KT 9999 FEW048 13/07 Q1025
 
EGPA - Kirkwall, Orkney
Distance from station: N 140mi, 225km
Updated: 01/06/2020 22:50
Clear
Clear
 Wind from varies
Wind: varies 1 mph , 2 km/h
Temperature: 11°C
Dew Point: 10°C
Humidity: 94%
Barometer: 1025 hPa
Clouds: Clear
Visibility: 6 miles , 10 km
2020/06/01 21:50 EGPA 012150Z AUTO VRB01KT 9999 NCD 11/10 Q1025
EGPO - Stornoway, Outer Hebrides
Distance from station: WNW 169mi, 273km
Updated: 01/06/2020 22:50
Clear
Clear
 Wind from N
Wind: N 7 mph , 11 km/h
Temperature: 11°C
Dew Point: 10°C
Humidity: 94%
Barometer: 1025 hPa
Clouds: Clear
Visibility: 6 miles , 10 km
2020/06/01 21:50 EGPO 012150Z AUTO 35006KT 9999 NCD 11/10 Q1025
 
EGPI - Islay, Inner Hebrides
Distance from station: WSW 172mi, 276km
Updated: 01/06/2020 22:20
Clear
Clear
 Wind from ESE
Wind: ESE 8 mph , 13 km/h
Temperature: 14°C
Dew Point: 6°C
Humidity: 59%
Barometer: 1024 hPa
Clouds: Clear
Visibility: 6 miles , 10 km
2020/06/01 21:20 EGPI 012120Z AUTO 12007KT 9999 NCD 14/06 Q1024
EGPU - Tiree, Inner Hebrides
Distance from station: W 172mi, 276km
Updated: 01/06/2020 22:20
Clear
Clear
 Wind from varies
Wind: varies 2 mph , 4 km/h
Temperature: 12°C
Dew Point: 9°C
Humidity: 82%
Barometer: 1024 hPa
Clouds: Clear
Visibility: 6 miles , 10 km
2020/06/01 21:20 EGPU 012120Z AUTO VRB02KT 9999 NCD 12/09 Q1024
 
EGPB - Sumburgh, Shetland
Distance from station: NNE 208mi, 332km
Updated: 01/06/2020 22:50
Clear
Clear
 Wind from WNW
Wind: WNW 3 mph , 6 km/h
Temperature: 10°C
Dew Point: 9°C
Humidity: 94%
Barometer: 1025 hPa
Clouds: Clear
Visibility: 6 miles , 10 km
2020/06/01 21:50 EGPB 012150Z AUTO 29003KT 9999 NCD 10/09 Q1025
EGPM - Scatsa, Shetland
Distance from station: NNE 245mi, 392km
Updated: 01/06/2020 22:50
Overcast
Overcast
 Wind from varies
Wind: varies 2 mph , 4 km/h
Temperature: 10°C
Dew Point: 9°C
Humidity: 94%
Barometer: 1025 hPa
Clouds: Overcast
Visibility: 6 miles , 10 km
Cloud details: Overcast 200 ft
2020/06/01 21:50 EGPM 012150Z AUTO VRB02KT 9999 OVC002/// 10/09 Q1025
-->